createdAt,value
2019-03-21T00:01:20.414Z,12.23
2019-03-21T00:03:50.991Z,12.45
2019-03-21T00:06:21.368Z,13.53
2019-03-21T00:08:50.490Z,12.90
2019-03-21T00:11:59.596Z,12.63
2019-03-21T00:14:46.819Z,12.37
2019-03-21T00:17:18.883Z,16.07
2019-03-21T00:19:47.869Z,18.30
2019-03-21T00:22:17.705Z,16.67
2019-03-21T00:24:46.596Z,14.28
2019-03-21T00:27:15.565Z,13.45
2019-03-21T00:29:45.498Z,11.73
2019-03-21T00:32:14.471Z,13.55
2019-03-21T00:34:43.358Z,14.10
2019-03-21T00:37:14.822Z,14.50
2019-03-21T00:39:47.237Z,14.45
2019-03-21T00:42:21.181Z,13.22
2019-03-21T00:44:51.024Z,12.82
2019-03-21T00:47:19.992Z,14.65
2019-03-21T00:49:48.985Z,12.47
2019-03-21T00:52:20.290Z,16.87
2019-03-21T00:54:53.545Z,11.88
2019-03-21T00:57:20.688Z,11.50
2019-03-21T00:59:49.666Z,9.83
2019-03-21T01:02:25.940Z,9.08
2019-03-21T01:04:54.923Z,16.82
2019-03-21T01:07:23.809Z,14.18
2019-03-21T01:09:52.752Z,14.18
2019-03-21T01:12:25.885Z,12.40
2019-03-21T01:14:55.872Z,10.60
2019-03-21T01:17:24.793Z,11.53
2019-03-21T01:19:53.785Z,13.78
2019-03-21T01:22:22.675Z,13.53
2019-03-21T01:24:52.584Z,15.08
2019-03-21T01:27:25.427Z,15.35
2019-03-21T01:29:54.364Z,16.27
2019-03-21T01:32:24.261Z,14.40
2019-03-21T01:34:55.728Z,14.00
2019-03-21T01:37:24.823Z,15.35
2019-03-21T01:39:53.809Z,14.40
2019-03-21T01:42:24.549Z,14.95
2019-03-21T01:44:53.126Z,15.20
2019-03-21T01:47:25.876Z,16.10
2019-03-21T01:49:54.798Z,12.35
2019-03-21T01:52:23.788Z,12.15
2019-03-21T01:54:53.718Z,13.80
2019-03-21T01:57:22.593Z,13.95
2019-03-21T01:59:51.490Z,13.88
2019-03-21T02:02:20.588Z,12.90
2019-03-21T02:04:49.399Z,12.65
2019-03-21T02:07:18.358Z,13.25
2019-03-21T02:09:51.345Z,12.60
2019-03-21T02:12:22.790Z,13.45
2019-03-21T02:14:52.516Z,14.33
2019-03-21T02:17:21.693Z,14.33
2019-03-21T02:19:50.583Z,17.70
2019-03-21T02:22:19.576Z,24.37
2019-03-21T02:24:48.778Z,24.80
2019-03-21T02:27:22.671Z,25.45
2019-03-21T02:29:52.695Z,24.32
2019-03-21T02:32:21.588Z,23.70
2019-03-21T02:34:50.354Z,23.60
2019-03-21T02:37:19.267Z,23.80
2019-03-21T02:39:59.376Z,22.22
2019-03-21T02:42:22.470Z,23.47
2019-03-21T02:44:51.462Z,21.48
2019-03-21T02:47:20.459Z,21.65
2019-03-21T02:49:49.342Z,19.40
2019-03-21T02:52:18.354Z,19.50
2019-03-21T02:54:48.402Z,18.65
2019-03-21T02:57:17.355Z,17.12
2019-03-21T02:59:46.334Z,18.30
2019-03-21T03:02:15.225Z,18.15
2019-03-21T03:04:44.216Z,18.40
2019-03-21T03:07:14.128Z,18.60
2019-03-21T03:09:43.021Z,18.92
2019-03-21T03:12:15.511Z,18.02
2019-03-21T03:14:54.233Z,22.87
2019-03-21T03:17:23.207Z,24.37
2019-03-21T03:19:53.094Z,28.12
2019-03-21T03:22:22.942Z,26.25
2019-03-21T03:24:55.813Z,33.42
2019-03-21T03:27:24.805Z,28.75
2019-03-21T03:29:53.727Z,22.15
2019-03-21T03:32:35.847Z,28.10
2019-03-21T03:34:56.602Z,19.10
2019-03-21T03:37:26.615Z,20.45
2019-03-21T03:39:55.504Z,20.97
2019-03-21T03:42:26.869Z,21.37
2019-03-21T03:44:56.880Z,19.87
2019-03-21T03:47:31.600Z,19.75
2019-03-21T03:50:06.734Z,17.60
2019-03-21T03:52:35.002Z,17.65
2019-03-21T03:55:07.660Z,21.50
2019-03-21T03:57:40.360Z,19.57
2019-03-21T04:00:12.423Z,19.05
2019-03-21T04:02:41.316Z,101.05
2019-03-21T04:05:12.109Z,36.30
2019-03-21T04:07:42.263Z,19.10
2019-03-21T04:10:17.265Z,18.62
2019-03-21T04:12:46.188Z,16.67
2019-03-21T04:15:22.693Z,14.93
2019-03-21T04:17:51.455Z,17.20
2019-03-21T04:20:23.368Z,19.17
2019-03-21T04:22:54.549Z,17.62
2019-03-21T04:25:48.474Z,20.45
2019-03-21T04:28:17.542Z,17.45
2019-03-21T04:30:47.522Z,20.32
2019-03-21T04:33:16.521Z,17.12
2019-03-21T04:35:45.415Z,16.67
2019-03-21T04:38:16.353Z,18.15
2019-03-21T04:40:45.241Z,17.60
2019-03-21T04:43:14.229Z,18.27
2019-03-21T04:45:43.120Z,18.62
2019-03-21T04:48:14.894Z,19.87
2019-03-21T04:50:42.972Z,22.13
2019-03-21T04:53:21.288Z,18.85
2019-03-21T04:55:50.251Z,19.12
2019-03-21T04:58:19.958Z,17.37
2019-03-21T05:00:56.539Z,23.65
2019-03-21T05:03:33.104Z,23.32
2019-03-21T05:06:06.998Z,20.08
2019-03-21T05:08:35.896Z,34.65
2019-03-21T05:11:04.802Z,35.85
2019-03-21T05:13:34.801Z,30.62
2019-03-21T05:16:14.056Z,16.95
2019-03-21T05:18:52.556Z,19.60
2019-03-21T05:21:24.962Z,20.15
2019-03-21T05:23:54.907Z,16.25
2019-03-21T05:26:23.824Z,15.40
2019-03-21T05:28:52.714Z,16.77
2019-03-21T05:31:38.923Z,18.87
2019-03-21T05:34:07.821Z,17.75
2019-03-21T05:36:36.794Z,16.97
2019-03-21T05:39:08.546Z,19.15
2019-03-21T05:41:40.840Z,20.25
2019-03-21T05:44:22.716Z,19.45
2019-03-21T05:46:51.712Z,19.57
2019-03-21T05:49:20.594Z,18.45
2019-03-21T05:51:49.486Z,17.55
2019-03-21T05:54:18.477Z,18.25
2019-03-21T05:56:47.367Z,16.62
2019-03-21T05:59:18.821Z,17.35
2019-03-21T06:01:51.511Z,16.85
2019-03-21T06:04:20.480Z,16.02
2019-03-21T06:06:58.238Z,14.53
2019-03-21T06:09:30.968Z,13.62
2019-03-21T06:12:04.500Z,13.03
2019-03-21T06:14:42.484Z,12.20
2019-03-21T06:17:15.225Z,10.80
2019-03-21T06:19:58.860Z,12.67
2019-03-21T06:22:45.791Z,12.45
2019-03-21T06:25:20.275Z,15.10
2019-03-21T06:27:49.203Z,17.73
2019-03-21T06:30:18.103Z,23.83
2019-03-21T06:32:47.092Z,15.70
2019-03-21T06:35:26.006Z,14.28
2019-03-21T06:37:54.997Z,11.43
2019-03-21T06:40:26.550Z,11.85
2019-03-21T06:42:57.807Z,14.80
2019-03-21T06:45:30.904Z,11.78
2019-03-21T06:47:59.725Z,12.07
2019-03-21T06:50:28.662Z,10.25
2019-03-21T06:52:57.552Z,9.23
2019-03-21T06:55:26.548Z,8.55
2019-03-21T06:57:58.333Z,9.15
2019-03-21T07:00:29.575Z,9.08
2019-03-21T07:02:59.668Z,8.13
2019-03-21T07:05:32.433Z,7.37
2019-03-21T07:08:02.257Z,8.20
2019-03-21T07:10:33.909Z,9.23
2019-03-21T07:13:05.378Z,9.50
2019-03-21T07:15:34.247Z,12.47
2019-03-21T07:18:03.143Z,11.85
2019-03-21T07:20:32.130Z,11.05
2019-03-21T07:23:01.020Z,9.43
2019-03-21T07:25:33.255Z,10.23
2019-03-21T07:28:04.753Z,10.70
2019-03-21T07:30:33.730Z,8.48
2019-03-21T07:33:02.621Z,9.58
2019-03-21T07:35:31.509Z,9.70
2019-03-21T07:38:00.399Z,10.38
2019-03-21T07:40:31.722Z,10.50
2019-03-21T07:42:59.820Z,10.58
2019-03-21T07:45:28.706Z,10.80
2019-03-21T07:48:00.464Z,11.22
2019-03-21T07:50:29.263Z,13.18
2019-03-21T07:52:58.158Z,14.05
2019-03-21T07:55:28.998Z,14.63
2019-03-21T07:58:02.802Z,15.43
2019-03-21T08:00:32.693Z,17.25
2019-03-21T08:03:12.033Z,18.95
2019-03-21T08:05:46.960Z,19.92
2019-03-21T08:08:22.811Z,19.77
2019-03-21T08:10:55.750Z,21.07
2019-03-21T08:13:24.690Z,23.32
2019-03-21T08:15:57.582Z,19.67
2019-03-21T08:18:29.634Z,20.50
2019-03-21T08:21:01.062Z,18.50
2019-03-21T08:23:29.881Z,17.62
2019-03-21T08:26:02.741Z,19.02
2019-03-21T08:28:36.669Z,15.20
2019-03-21T08:31:08.726Z,13.40
2019-03-21T08:33:37.615Z,12.80
2019-03-21T08:36:06.503Z,14.03
2019-03-21T08:38:35.498Z,11.78
2019-03-21T08:41:04.598Z,12.10
2019-03-21T08:43:36.062Z,12.43
2019-03-21T08:46:06.055Z,20.55
2019-03-21T08:48:41.778Z,13.58
2019-03-21T08:51:17.800Z,12.33
2019-03-21T08:53:46.699Z,16.15
2019-03-21T08:56:15.647Z,20.95
2019-03-21T08:58:47.912Z,19.10
2019-03-21T09:01:16.800Z,15.20
2019-03-21T09:03:45.382Z,12.85
2019-03-21T09:06:14.379Z,12.82
2019-03-21T09:08:47.572Z,10.65
2019-03-21T09:11:16.561Z,9.33
2019-03-21T09:13:48.940Z,11.15
2019-03-21T09:16:25.408Z,10.68
2019-03-21T09:18:57.565Z,9.35
2019-03-21T09:21:33.960Z,8.53
2019-03-21T09:24:02.818Z,8.15
2019-03-21T09:26:31.762Z,9.33
2019-03-21T09:29:00.699Z,8.78
2019-03-21T09:31:37.067Z,7.80
2019-03-21T09:34:05.955Z,8.45
2019-03-21T09:36:34.988Z,7.53
2019-03-21T09:39:06.845Z,7.87
2019-03-21T09:41:37.889Z,7.22
2019-03-21T09:44:07.821Z,7.65
2019-03-21T09:46:36.751Z,10.93
2019-03-21T09:49:07.733Z,7.08
2019-03-21T09:51:38.726Z,7.83
2019-03-21T09:54:11.294Z,6.90
2019-03-21T09:56:40.204Z,6.30
2019-03-21T09:59:09.084Z,6.45
2019-03-21T10:01:40.386Z,7.03
2019-03-21T10:04:09.346Z,7.42
2019-03-21T10:06:38.210Z,6.92
2019-03-21T10:09:08.196Z,7.25
2019-03-21T10:11:37.117Z,6.80
2019-03-21T10:14:09.023Z,7.12
2019-03-21T10:16:36.635Z,6.28
2019-03-21T10:19:06.649Z,6.50
2019-03-21T10:21:43.256Z,7.00
2019-03-21T10:24:08.637Z,6.12
2019-03-21T10:26:37.516Z,6.70
2019-03-21T10:29:06.419Z,8.90
2019-03-21T10:31:35.294Z,6.83
2019-03-21T10:34:04.185Z,6.15
2019-03-21T10:36:36.652Z,7.03
2019-03-21T10:39:06.797Z,6.35
2019-03-21T10:41:40.564Z,7.40
2019-03-21T10:44:09.576Z,6.12
2019-03-21T10:46:38.471Z,5.15
2019-03-21T10:49:11.453Z,6.20
2019-03-21T10:51:40.340Z,5.60
2019-03-21T10:54:09.348Z,7.22
2019-03-21T10:56:41.885Z,6.92
2019-03-21T10:59:11.822Z,5.80
2019-03-21T11:01:40.416Z,8.23
2019-03-21T11:04:09.377Z,7.97
2019-03-21T11:06:49.026Z,7.95
2019-03-21T11:09:18.951Z,6.60
2019-03-21T11:11:47.942Z,5.60
2019-03-21T11:14:20.824Z,6.08
2019-03-21T11:16:49.717Z,5.63
2019-03-21T11:19:21.095Z,6.37
2019-03-21T11:22:05.700Z,6.42
2019-03-21T11:24:26.015Z,7.17
2019-03-21T11:26:56.024Z,10.45
2019-03-21T11:29:24.921Z,4.83
2019-03-21T11:31:56.826Z,8.78
2019-03-21T11:34:25.360Z,7.12
2019-03-21T11:36:54.351Z,6.60
2019-03-21T11:39:25.902Z,7.97
2019-03-21T11:41:57.412Z,6.65
2019-03-21T11:44:26.354Z,7.87
2019-03-21T11:46:55.347Z,6.17
2019-03-21T11:49:24.225Z,5.42
2019-03-21T11:51:53.118Z,6.80
2019-03-21T11:54:22.165Z,5.85
2019-03-21T11:56:51.104Z,9.28
2019-03-21T11:59:20.096Z,6.22
2019-03-21T12:01:49.962Z,6.05
2019-03-21T12:04:19.011Z,6.72
2019-03-21T12:06:47.888Z,8.08
2019-03-21T12:09:16.773Z,6.40
2019-03-21T12:11:45.662Z,6.30
2019-03-21T12:14:32.079Z,11.73
2019-03-21T12:16:59.212Z,8.73
2019-03-21T12:19:33.120Z,14.98
2019-03-21T12:22:02.048Z,13.15
2019-03-21T12:24:37.380Z,9.75
2019-03-21T12:27:06.342Z,16.55
2019-03-21T12:29:35.231Z,13.28
2019-03-21T12:32:03.972Z,10.63
2019-03-21T12:34:36.502Z,7.47
2019-03-21T12:37:05.487Z,7.92
2019-03-21T12:39:34.293Z,8.20
2019-03-21T12:42:04.189Z,7.17
2019-03-21T12:44:35.736Z,8.18
2019-03-21T12:47:04.551Z,7.65
2019-03-21T12:49:38.410Z,9.15
2019-03-21T12:52:07.321Z,8.18
2019-03-21T12:54:36.213Z,8.18
2019-03-21T12:57:11.897Z,8.10
2019-03-21T12:59:39.726Z,8.93
2019-03-21T13:02:08.613Z,9.63
2019-03-21T13:04:37.381Z,7.42
2019-03-21T13:07:06.291Z,7.00
2019-03-21T13:09:35.180Z,7.40
2019-03-21T13:12:04.045Z,7.67
2019-03-21T13:14:32.899Z,8.75
2019-03-21T13:17:04.434Z,8.13
2019-03-21T13:19:33.400Z,8.88
2019-03-21T13:22:02.290Z,9.10
2019-03-21T13:24:31.386Z,9.63
2019-03-21T13:27:00.420Z,10.90
2019-03-21T13:29:29.368Z,8.03
2019-03-21T13:32:02.786Z,8.88
2019-03-21T13:34:32.710Z,8.00
2019-03-21T13:37:01.571Z,7.37
2019-03-21T13:39:31.332Z,10.60
2019-03-21T13:42:00.270Z,8.20
2019-03-21T13:44:29.169Z,9.43
2019-03-21T13:47:02.656Z,10.90
2019-03-21T13:49:34.923Z,8.68
2019-03-21T13:52:07.711Z,9.83
2019-03-21T13:54:36.593Z,10.40
2019-03-21T13:57:05.503Z,9.98
2019-03-21T13:59:34.480Z,10.35
2019-03-21T14:02:03.399Z,10.63
2019-03-21T14:04:32.274Z,8.33
2019-03-21T14:07:01.143Z,9.10
2019-03-21T14:09:31.060Z,9.78
2019-03-21T14:11:59.817Z,9.63
2019-03-21T14:14:31.108Z,8.80
2019-03-21T14:17:01.851Z,9.40
2019-03-21T14:19:30.618Z,9.15
2019-03-21T14:21:59.374Z,9.75
2019-03-21T14:24:28.290Z,8.40
2019-03-21T14:26:57.176Z,8.35
2019-03-21T14:29:30.236Z,8.53
2019-03-21T14:31:57.661Z,7.70
2019-03-21T14:34:29.169Z,8.60
2019-03-21T14:36:58.059Z,9.68
2019-03-21T14:39:31.864Z,8.48
2019-03-21T14:44:29.033Z,13.03
2019-03-21T14:46:57.921Z,9.50
2019-03-21T14:49:28.140Z,7.83
2019-03-21T14:51:57.234Z,8.05
2019-03-21T14:54:26.129Z,7.60
2019-03-21T14:56:57.409Z,8.20
2019-03-21T14:59:26.256Z,8.33
2019-03-21T15:01:55.248Z,8.40
2019-03-21T15:04:24.140Z,7.87
2019-03-21T15:06:53.888Z,7.87
2019-03-21T15:09:22.840Z,6.90
2019-03-21T15:11:52.796Z,8.20
2019-03-21T15:14:21.742Z,8.15
2019-03-21T15:16:52.696Z,8.08
2019-03-21T15:19:22.598Z,8.05
2019-03-21T15:21:51.509Z,8.78
2019-03-21T15:24:20.489Z,7.45
2019-03-21T15:26:51.493Z,8.95
2019-03-21T15:29:19.894Z,9.78
2019-03-21T15:31:48.784Z,9.03
2019-03-21T15:34:21.769Z,9.78
2019-03-21T15:36:51.683Z,10.40
2019-03-21T15:39:20.571Z,9.45
2019-03-21T15:41:49.461Z,12.33
2019-03-21T15:44:18.352Z,12.28
2019-03-21T15:46:47.343Z,10.00
2019-03-21T15:49:16.289Z,8.88
2019-03-21T15:51:50.539Z,8.13
2019-03-21T15:54:21.674Z,7.53
2019-03-21T15:56:51.607Z,7.35
2019-03-21T15:59:23.055Z,9.35
2019-03-21T16:01:52.944Z,9.45
2019-03-21T16:04:28.309Z,8.83
2019-03-21T16:07:02.014Z,7.92
2019-03-21T16:11:58.972Z,6.80
2019-03-21T16:14:27.981Z,7.72
2019-03-21T16:16:56.857Z,9.15
2019-03-21T16:19:25.847Z,5.92
2019-03-21T16:21:58.524Z,5.08
2019-03-21T16:24:27.515Z,4.92
2019-03-21T16:26:56.818Z,5.72
2019-03-21T16:29:25.809Z,4.95
2019-03-21T16:31:54.697Z,6.42
2019-03-21T16:34:24.712Z,6.30
2019-03-21T16:36:53.604Z,5.67
2019-03-21T16:39:22.697Z,6.17
2019-03-21T16:41:52.570Z,7.00
2019-03-21T16:44:23.137Z,6.80
2019-03-21T16:46:52.030Z,8.98
2019-03-21T16:49:21.026Z,13.90
2019-03-21T16:51:49.912Z,13.25
2019-03-21T16:54:18.685Z,7.00
2019-03-21T16:56:48.613Z,10.08
2019-03-21T16:59:17.612Z,11.60
2019-03-21T17:01:47.345Z,12.35
2019-03-21T17:04:16.303Z,10.48
2019-03-21T17:06:46.335Z,7.22
2019-03-21T17:09:15.213Z,9.28
2019-03-21T17:11:46.465Z,7.78
2019-03-21T17:14:22.527Z,7.83
2019-03-21T17:16:51.604Z,7.42
2019-03-21T17:19:21.517Z,7.87
2019-03-21T17:21:51.433Z,8.10
2019-03-21T17:24:29.169Z,8.10
2019-03-21T17:26:55.253Z,7.05
2019-03-21T17:29:24.142Z,10.10
2019-03-21T17:31:55.530Z,9.70
2019-03-21T17:34:27.984Z,10.90
2019-03-21T17:36:56.853Z,11.57
2019-03-21T17:39:25.745Z,9.85
2019-03-21T17:41:58.738Z,12.15
2019-03-21T17:44:27.721Z,11.15
2019-03-21T17:46:58.995Z,15.28
2019-03-21T17:49:28.717Z,10.48
2019-03-21T17:51:59.441Z,9.70
2019-03-21T17:54:40.641Z,14.55
2019-03-21T17:57:00.017Z,12.78
2019-03-21T17:59:32.231Z,13.50
2019-03-21T18:02:01.012Z,15.10
2019-03-21T18:04:35.820Z,15.03
2019-03-21T18:07:05.031Z,11.30
2019-03-21T18:09:34.946Z,16.17
2019-03-21T18:12:03.833Z,14.10
2019-03-21T18:14:37.541Z,18.35
2019-03-21T18:19:34.710Z,12.10
2019-03-21T18:22:03.601Z,27.22
2019-03-21T18:24:32.481Z,16.73
2019-03-21T18:27:01.305Z,14.75
2019-03-21T18:29:30.363Z,18.52
2019-03-21T18:31:59.313Z,16.82
2019-03-21T18:34:28.260Z,17.98
2019-03-21T18:36:57.344Z,17.10
2019-03-21T18:39:26.433Z,17.42
2019-03-21T18:41:55.332Z,19.20
2019-03-21T18:44:24.212Z,19.35
2019-03-21T18:46:53.102Z,18.12
2019-03-21T18:49:25.198Z,14.95
2019-03-21T18:51:52.794Z,16.37
2019-03-21T18:54:22.850Z,14.78
2019-03-21T18:56:51.733Z,16.60
2019-03-21T18:59:20.620Z,16.40
2019-03-21T19:01:58.392Z,18.02
2019-03-21T19:04:20.038Z,17.07
2019-03-21T19:06:52.956Z,16.40
2019-03-21T19:09:24.478Z,15.98
2019-03-21T19:11:57.366Z,15.28
2019-03-21T19:14:29.829Z,17.03
2019-03-21T19:16:58.821Z,17.75
2019-03-21T19:19:27.712Z,17.85
2019-03-21T19:21:56.602Z,17.87
2019-03-21T19:24:25.356Z,18.15
2019-03-21T19:26:56.237Z,16.97
2019-03-21T19:29:25.217Z,17.70
2019-03-21T19:31:55.000Z,17.90
2019-03-21T19:34:26.380Z,17.10
2019-03-21T19:36:57.729Z,18.90
2019-03-21T19:39:26.672Z,18.60
2019-03-21T19:41:55.626Z,18.55
2019-03-21T19:44:24.597Z,17.20
2019-03-21T19:46:54.509Z,17.52
2019-03-21T19:49:23.932Z,17.92
2019-03-21T19:51:53.003Z,19.40
2019-03-21T19:54:21.894Z,16.48
2019-03-21T19:56:50.885Z,17.32
2019-03-21T19:59:19.778Z,18.23
2019-03-21T20:01:52.559Z,17.60
2019-03-21T20:04:23.828Z,18.83
2019-03-21T20:06:59.008Z,18.48
2019-03-21T20:09:27.929Z,19.23
2019-03-21T20:12:03.292Z,22.40
2019-03-21T20:14:32.165Z,23.57
2019-03-21T20:17:05.056Z,19.80
2019-03-21T20:19:34.136Z,39.90
2019-03-21T20:22:03.209Z,19.82
2019-03-21T20:24:32.184Z,22.93
2019-03-21T20:27:01.117Z,23.07
2019-03-21T20:29:30.105Z,16.82
2019-03-21T20:31:58.993Z,19.70
2019-03-21T20:34:27.883Z,20.50
2019-03-21T20:37:03.661Z,21.40
2019-03-21T20:39:30.689Z,23.95
2019-03-21T20:41:59.673Z,24.07
2019-03-21T20:44:29.688Z,20.40
2019-03-21T20:47:01.248Z,19.65
2019-03-21T20:49:30.131Z,24.05
2019-03-21T20:51:59.025Z,19.12
2019-03-21T20:54:27.908Z,22.77
2019-03-21T20:56:56.799Z,27.20
2019-03-21T20:59:25.594Z,22.70
2019-03-21T21:02:02.686Z,18.77
2019-03-21T21:04:24.902Z,20.32
2019-03-21T21:06:53.891Z,30.35
2019-03-21T21:09:25.253Z,23.18
2019-03-21T21:11:54.153Z,22.98
2019-03-21T21:14:23.120Z,19.20
2019-03-21T21:16:52.010Z,17.70
2019-03-21T21:19:23.587Z,18.30
2019-03-21T21:21:53.883Z,25.50
2019-03-21T21:24:23.797Z,33.25
2019-03-21T21:26:54.326Z,20.62
2019-03-21T21:29:23.216Z,28.45
2019-03-21T21:31:53.040Z,15.28
2019-03-21T21:34:24.579Z,63.15
2019-03-21T21:36:53.468Z,19.67
2019-03-21T21:39:23.385Z,16.37
2019-03-21T21:41:52.296Z,13.62
2019-03-21T21:44:22.041Z,15.38
2019-03-21T21:46:53.428Z,13.95
2019-03-21T21:49:24.449Z,12.13
2019-03-21T21:51:52.849Z,13.25
2019-03-21T21:54:21.843Z,13.25
2019-03-21T21:56:50.833Z,12.80
2019-03-21T21:59:19.721Z,11.97
2019-03-21T22:01:48.613Z,12.43
2019-03-21T22:04:22.108Z,11.38
2019-03-21T22:06:50.998Z,20.30
2019-03-21T22:09:19.892Z,12.05
2019-03-21T22:11:51.445Z,11.22
2019-03-21T22:14:27.394Z,12.25
2019-03-21T22:16:56.390Z,11.68
2019-03-21T22:19:25.281Z,10.50
2019-03-21T22:21:54.274Z,11.08
2019-03-21T22:24:23.158Z,10.58
2019-03-21T22:26:53.072Z,11.75
2019-03-21T22:29:21.965Z,9.75
2019-03-21T22:31:50.849Z,10.10
2019-03-21T22:34:19.740Z,11.70
2019-03-21T22:36:49.620Z,10.25
2019-03-21T22:39:18.860Z,10.20
2019-03-21T22:41:48.764Z,9.48
2019-03-21T22:44:18.576Z,9.30
2019-03-21T22:46:47.463Z,8.35
2019-03-21T22:49:16.558Z,8.20
2019-03-21T22:51:47.929Z,9.98
2019-03-21T22:54:21.480Z,11.70
2019-03-21T22:56:55.415Z,7.53
2019-03-21T22:59:29.729Z,8.63
2019-03-21T23:01:58.724Z,14.80
2019-03-21T23:04:30.573Z,8.40
2019-03-21T23:06:59.470Z,7.60
2019-03-21T23:09:34.613Z,8.50
2019-03-21T23:12:03.495Z,7.83
2019-03-21T23:14:32.488Z,7.72
2019-03-21T23:17:02.402Z,7.85
2019-03-21T23:19:34.988Z,7.10
2019-03-21T23:22:06.229Z,6.85
2019-03-21T23:24:35.111Z,6.12
2019-03-21T23:27:04.006Z,6.47
2019-03-21T23:29:32.997Z,6.33
2019-03-21T23:32:01.736Z,5.85
2019-03-21T23:34:32.409Z,5.92
2019-03-21T23:37:03.860Z,4.60
2019-03-21T23:39:35.309Z,4.97
2019-03-21T23:42:04.301Z,4.80
2019-03-21T23:44:33.213Z,4.70
2019-03-21T23:47:02.133Z,4.62
2019-03-21T23:49:31.072Z,4.28
2019-03-21T23:52:00.959Z,4.65
2019-03-21T23:54:29.876Z,4.40
2019-03-21T23:57:04.834Z,4.47
2019-03-21T23:59:32.262Z,3.95
